Time;durP1;ratioP1;P1;durP2;ratioP2;P2;SDS_P1;SDS_P2;PMS_P1;PMS_P2;Temp;Humidity;BMP_temperature;BMP_pressure;BME280_temperature;BME280_humidity;BME280_pressure;Samples;Min_cycle;Max_cycle;Signal;HPM_P1;HPM_P2
2022/08/18 00:00:11;;;;;;;0.10;0.10;;;18.40;99.90;;;;;;4900191;29;20052;-92
2022/08/18 00:02:40;;;;;;;0.20;0.20;;;18.30;99.90;;;;;;4886285;29;20094;-92
2022/08/18 00:05:06;;;;;;;0.20;0.20;;;18.30;99.90;;;;;;4901415;29;20087;-92
2022/08/18 00:07:32;;;;;;;0.32;0.22;;;18.30;99.90;;;;;;4886224;29;20376;-92
2022/08/18 00:09:59;;;;;;;0.10;0.10;;;18.30;99.90;;;;;;4901238;29;20051;-92
2022/08/18 00:12:36;;;;;;;0.98;0.32;;;18.30;99.90;;;;;;4886261;29;20129;-91
2022/08/18 00:15:04;;;;;;;0.35;0.30;;;18.20;99.90;;;;;;4901209;29;20521;-92
2022/08/18 00:17:32;;;;;;;0.75;0.40;;;18.30;99.90;;;;;;4885618;29;20423;-92
2022/08/18 00:19:58;;;;;;;0.50;0.30;;;18.20;99.90;;;;;;4886159;29;20052;-92
2022/08/18 00:22:24;;;;;;;0.63;0.40;;;18.20;99.90;;;;;;4871106;29;20056;-92
2022/08/18 00:24:53;;;;;;;0.05;0.05;;;18.20;99.90;;;;;;4870818;29;20451;-91
2022/08/18 00:27:22;;;;;;;0.20;0.20;;;18.20;99.90;;;;;;4900834;29;20325;-92
2022/08/18 00:29:48;;;;;;;0.20;0.20;;;18.20;99.90;;;;;;4901087;29;20064;-92
2022/08/18 00:32:17;;;;;;;0.20;0.17;;;18.20;99.90;;;;;;4900904;29;20104;-91
2022/08/18 00:34:43;;;;;;;0.50;0.40;;;18.20;99.90;;;;;;4885775;29;20040;-92
2022/08/18 00:37:08;;;;;;;0.85;0.52;;;18.20;99.90;;;;;;4900893;29;20048;-92
2022/08/18 00:39:34;;;;;;;0.55;0.43;;;18.20;99.90;;;;;;4886196;29;20087;-91
2022/08/18 00:42:16;;;;;;;0.38;0.38;;;18.20;99.90;;;;;;4899896;29;20411;-91
2022/08/18 00:44:41;;;;;;;0.32;0.30;;;18.20;99.90;;;;;;4900314;29;20180;-92
2022/08/18 00:47:07;;;;;;;1.07;0.30;;;18.20;99.90;;;;;;4885015;29;20083;-92
2022/08/18 00:49:33;;;;;;;0.53;0.50;;;18.10;99.90;;;;;;4885845;29;20299;-91
2022/08/18 00:52:01;;;;;;;0.32;0.32;;;18.20;99.90;;;;;;4885496;29;20284;-92
2022/08/18 00:54:30;;;;;;;0.30;0.30;;;18.20;99.90;;;;;;4916696;29;20074;-91
2022/08/18 00:57:01;;;;;;;0.40;0.22;;;18.20;99.90;;;;;;4884961;29;20409;-91
2022/08/18 00:59:37;;;;;;;0.10;0.10;;;18.20;99.90;;;;;;4899637;29;20044;-91
2022/08/18 01:02:09;;;;;;;0.10;0.10;;;18.20;99.90;;;;;;4885588;29;20410;-91
2022/08/18 01:05:10;;;;;;;0.30;0.30;;;18.20;99.90;;;;;;4885849;29;20058;-91
2022/08/18 01:07:45;;;;;;;0.75;0.30;;;18.30;99.90;;;;;;4883626;29;20052;-91
2022/08/18 01:10:18;;;;;;;0.75;0.30;;;18.20;99.90;;;;;;4900849;29;20048;-91
2022/08/18 01:12:46;;;;;;;0.20;0.20;;;18.20;99.90;;;;;;4901139;29;20055;-91
2022/08/18 01:15:13;;;;;;;0.43;0.43;;;18.20;99.90;;;;;;4885235;29;20413;-92
2022/08/18 01:23:22;;;;;;;0.30;0.30;;;18.20;99.90;;;;;;4900452;29;20448;-92
2022/08/18 01:25:59;;;;;;;0.30;0.30;;;18.10;99.90;;;;;;4900499;29;20080;-91
2022/08/18 01:28:25;;;;;;;;;;;18.10;99.90;;;;;;4885782;29;20383;-91
2022/08/18 01:30:56;;;;;;;0.65;0.30;;;18.10;99.90;;;;;;4884951;29;19930;-91
2022/08/18 01:33:25;;;;;;;0.35;0.32;;;18.10;99.90;;;;;;4884606;29;20568;-91
2022/08/18 01:35:53;;;;;;;0.47;0.20;;;18.10;99.90;;;;;;4884895;29;20056;-91
2022/08/18 01:38:25;;;;;;;0.35;0.35;;;18.10;99.90;;;;;;4883901;29;20055;-92
2022/08/18 01:40:51;;;;;;;0.55;0.43;;;18.10;99.90;;;;;;4884589;29;20188;-92
2022/08/18 01:43:16;;;;;;;1.42;0.50;;;18.00;99.90;;;;;;4884357;29;20055;-91
2022/08/18 01:45:42;;;;;;;0.38;0.35;;;18.10;99.90;;;;;;4883816;29;20040;-92
2022/08/18 01:48:08;;;;;;;0.80;0.40;;;18.00;99.90;;;;;;4884113;29;20051;-90
2022/08/18 01:50:38;;;;;;;0.20;0.20;;;18.00;99.90;;;;;;4899982;29;20051;-92
2022/08/18 01:53:05;;;;;;;0.50;0.40;;;18.00;99.90;;;;;;4884216;29;20098;-92
2022/08/18 01:55:34;;;;;;;0.45;0.30;;;18.10;99.90;;;;;;4884457;29;20048;-91
2022/08/18 01:58:00;;;;;;;0.40;0.40;;;18.00;99.90;;;;;;4883830;29;20485;-91
2022/08/18 02:00:27;;;;;;;0.35;0.35;;;18.10;99.90;;;;;;4899485;29;20048;-92
2022/08/18 02:02:53;;;;;;;0.57;0.32;;;18.10;99.90;;;;;;4884402;29;20131;-92
2022/08/18 02:05:34;;;;;;;1.02;0.77;;;18.10;99.90;;;;;;4868313;29;20594;-91
2022/08/18 02:08:00;;;;;;;0.40;0.20;;;18.10;99.90;;;;;;4884301;29;20044;-91
2022/08/18 02:10:26;;;;;;;0.30;0.30;;;18.10;99.90;;;;;;4883846;29;20050;-91
2022/08/18 02:12:52;;;;;;;0.52;0.32;;;18.10;99.90;;;;;;4884584;29;20403;-91
2022/08/18 02:15:21;;;;;;;0.43;0.28;;;18.10;99.90;;;;;;4882998;29;20127;-92
2022/08/18 02:17:47;;;;;;;1.48;0.60;;;18.10;99.90;;;;;;4883228;29;20060;-91
2022/08/18 02:20:15;;;;;;;0.60;0.40;;;18.10;99.90;;;;;;4883902;29;20052;-91
2022/08/18 02:22:42;;;;;;;0.20;0.20;;;17.30;99.90;;;;;;4899472;29;20055;-91
2022/08/18 02:25:08;;;;;;;1.15;0.47;;;18.10;99.90;;;;;;4883633;29;20052;-92
2022/08/18 02:27:34;;;;;;;0.70;0.30;;;18.10;99.90;;;;;;4868466;29;20052;-91
2022/08/18 02:30:03;;;;;;;0.85;0.52;;;18.10;99.90;;;;;;4883662;29;20064;-91
2022/08/18 02:32:30;;;;;;;0.32;0.32;;;18.10;99.90;;;;;;4883026;29;20135;-91
2022/08/18 02:34:55;;;;;;;0.73;0.25;;;18.10;99.90;;;;;;4884665;29;20048;-91
2022/08/18 02:37:21;;;;;;;0.75;0.30;;;18.10;99.90;;;;;;4868343;29;20048;-91
2022/08/18 02:39:47;;;;;;;0.93;0.40;;;18.10;99.90;;;;;;4884273;29;20048;-91
2022/08/18 02:42:15;;;;;;;1.48;0.47;;;18.10;99.90;;;;;;4868707;29;20110;-92
2022/08/18 02:44:41;;;;;;;0.73;0.47;;;19.00;99.90;;;;;;4869312;29;20055;-92
2022/08/18 02:47:07;;;;;;;0.35;0.20;;;18.20;99.90;;;;;;4899312;29;20452;-91
2022/08/18 02:49:35;;;;;;;0.30;0.30;;;18.20;99.90;;;;;;4882798;29;20083;-91
2022/08/18 02:52:00;;;;;;;0.52;0.30;;;18.20;99.90;;;;;;4883891;29;20056;-91
2022/08/18 02:54:26;;;;;;;0.10;0.10;;;18.20;99.90;;;;;;4883303;29;20056;-90
2022/08/18 02:56:52;;;;;;;0.63;0.43;;;18.10;99.90;;;;;;4883692;29;20044;-91
2022/08/18 02:59:23;;;;;;;0.63;0.40;;;18.20;99.90;;;;;;4899195;29;20115;-91
2022/08/18 03:01:52;;;;;;;0.30;0.20;;;18.20;99.90;;;;;;4884577;29;20052;-91
2022/08/18 03:04:22;;;;;;;0.57;0.40;;;18.20;99.90;;;;;;4887775;29;20056;-91
2022/08/18 03:06:48;;;;;;;0.40;0.40;;;18.10;99.90;;;;;;4887604;29;20468;-91
2022/08/18 03:09:17;;;;;;;0.95;0.30;;;18.10;99.90;;;;;;4887277;29;20052;-92
2022/08/18 03:11:43;;;;;;;0.40;0.20;;;18.10;99.90;;;;;;4888090;29;20058;-91
2022/08/18 03:14:09;;;;;;;;;;;18.10;99.90;;;;;;4903555;29;20570;-92
2022/08/18 03:16:39;;;;;;;0.52;0.30;;;18.10;99.90;;;;;;4900607;29;20006;-91
2022/08/18 03:19:05;;;;;;;0.28;0.28;;;18.10;99.90;;;;;;4902065;29;20058;-91
2022/08/18 03:21:35;;;;;;;0.40;0.13;;;18.00;99.90;;;;;;4886299;29;20522;-91
2022/08/18 03:24:02;;;;;;;0.47;0.40;;;18.00;99.90;;;;;;4887123;29;20052;-91
2022/08/18 03:26:29;;;;;;;0.25;0.25;;;18.00;99.90;;;;;;4886829;29;20052;-92
2022/08/18 03:28:55;;;;;;;0.60;0.40;;;18.00;99.90;;;;;;4902396;29;20088;-91
2022/08/18 03:31:23;;;;;;;0.50;0.30;;;18.00;99.90;;;;;;4901706;29;20063;-91
2022/08/18 03:33:50;;;;;;;0.55;0.40;;;18.00;99.90;;;;;;4902157;29;20112;-91
2022/08/18 03:36:23;;;;;;;0.57;0.50;;;18.10;99.90;;;;;;4902037;29;20376;-91
2022/08/18 03:38:50;;;;;;;0.52;0.30;;;18.00;99.90;;;;;;4902259;29;20055;-91
2022/08/18 03:41:23;;;;;;;0.45;0.45;;;18.10;99.90;;;;;;4886587;29;20055;-93
2022/08/18 03:43:50;;;;;;;0.10;0.10;;;18.00;99.90;;;;;;4887140;29;20061;-91
2022/08/18 03:46:17;;;;;;;0.68;0.68;;;18.00;99.90;;;;;;4884857;29;20055;-93
2022/08/18 03:48:45;;;;;;;0.63;0.47;;;18.00;99.90;;;;;;4902152;29;20063;-91
2022/08/18 03:51:24;;;;;;;0.88;0.35;;;18.00;99.90;;;;;;4871923;29;20083;-91
2022/08/18 03:53:56;;;;;;;0.15;0.15;;;18.00;99.90;;;;;;4886903;29;20063;-91
2022/08/18 03:56:28;;;;;;;0.55;0.55;;;18.00;99.90;;;;;;4886143;29;20507;-91
2022/08/18 03:59:01;;;;;;;0.80;0.38;;;18.00;99.90;;;;;;4901625;29;20052;-91
2022/08/18 04:01:31;;;;;;;0.30;0.30;;;18.00;99.90;;;;;;4886513;29;20498;-92
2022/08/18 04:04:02;;;;;;;0.52;0.50;;;18.00;99.90;;;;;;4902151;29;20164;-91
2022/08/18 04:06:38;;;;;;;0.25;0.25;;;18.00;99.90;;;;;;4885715;29;20079;-91
2022/08/18 04:09:05;;;;;;;0.93;0.85;;;18.00;99.90;;;;;;4886078;29;20048;-91
2022/08/18 04:11:32;;;;;;;0.52;0.32;;;18.00;99.90;;;;;;4885683;29;20107;-91
2022/08/18 04:13:58;;;;;;;0.52;0.30;;;18.00;99.90;;;;;;4885986;29;20051;-91
2022/08/18 04:16:31;;;;;;;1.27;0.40;;;18.00;99.90;;;;;;4886064;29;20047;-91
2022/08/18 04:19:03;;;;;;;0.57;0.40;;;18.00;99.90;;;;;;4899826;29;20475;-91
2022/08/18 04:21:32;;;;;;;0.30;0.30;;;18.00;99.90;;;;;;4901001;29;20051;-91
2022/08/18 04:24:03;;;;;;;0.57;0.30;;;18.00;99.90;;;;;;4901621;29;20059;-91
2022/08/18 04:26:34;;;;;;;0.25;0.25;;;18.00;99.90;;;;;;4901708;29;20411;-91
2022/08/18 04:29:00;;;;;;;1.20;0.40;;;18.00;99.90;;;;;;4886337;29;20048;-91
2022/08/18 04:31:27;;;;;;;0.98;0.30;;;18.00;99.90;;;;;;4900998;29;20063;-91
2022/08/18 04:33:55;;;;;;;0.30;0.25;;;18.00;99.90;;;;;;4901064;29;20418;-91
2022/08/18 04:36:21;;;;;;;0.57;0.45;;;18.00;99.90;;;;;;4901119;29;20059;-91
2022/08/18 04:38:46;;;;;;;0.40;0.30;;;18.00;99.90;;;;;;4900902;29;20044;-91
2022/08/18 04:41:12;;;;;;;0.57;0.47;;;18.00;99.90;;;;;;4901365;29;20084;-91
2022/08/18 04:43:39;;;;;;;0.57;0.35;;;18.00;99.90;;;;;;4901158;29;20135;-91
2022/08/18 04:46:06;;;;;;;1.48;0.55;;;18.00;99.90;;;;;;4885916;29;20052;-91
2022/08/18 04:48:37;;;;;;;0.85;0.40;;;18.00;99.90;;;;;;4900173;29;20080;-91
2022/08/18 04:51:05;;;;;;;0.40;0.40;;;18.00;99.90;;;;;;4900230;29;20129;-91
2022/08/18 04:53:46;;;;;;;3.63;0.45;;;17.90;99.90;;;;;;4900606;29;20194;-91
2022/08/18 04:56:16;;;;;;;1.00;0.50;;;18.00;99.90;;;;;;4872410;29;20095;-91
2022/08/18 04:58:48;;;;;;;0.82;0.35;;;17.90;99.90;;;;;;4885731;29;20703;-90
2022/08/18 05:01:16;;;;;;;0.40;0.40;;;17.90;99.90;;;;;;4885664;29;20083;-91
2022/08/18 05:03:43;;;;;;;0.10;0.10;;;18.00;99.90;;;;;;4869655;29;20048;-92
2022/08/18 05:06:08;;;;;;;1.13;0.50;;;18.00;99.90;;;;;;4901476;29;20052;-91
2022/08/18 05:08:34;;;;;;;0.65;0.40;;;17.90;99.90;;;;;;4885138;29;20071;-91
2022/08/18 05:11:00;;;;;;;0.30;0.30;;;18.00;99.90;;;;;;4917073;29;20465;-91
2022/08/18 05:13:26;;;;;;;1.15;0.50;;;18.00;99.90;;;;;;4900523;29;20139;-91
2022/08/18 05:15:55;;;;;;;0.25;0.25;;;18.00;99.90;;;;;;4900532;29;20059;-91
2022/08/18 05:18:23;;;;;;;0.20;0.20;;;18.00;99.90;;;;;;4899843;29;20135;-92
2022/08/18 05:20:52;;;;;;;0.43;0.30;;;18.00;99.90;;;;;;4884225;29;20059;-91
2022/08/18 05:23:19;;;;;;;0.57;0.50;;;18.00;99.90;;;;;;4885211;29;20451;-91
2022/08/18 05:25:45;;;;;;;0.73;0.28;;;18.00;99.90;;;;;;4898818;29;20080;-92
2022/08/18 05:28:12;;;;;;;0.80;0.60;;;18.00;99.90;;;;;;4885471;29;20051;-91
2022/08/18 05:30:39;;;;;;;1.10;0.60;;;18.00;99.90;;;;;;4899601;29;20083;-90
2022/08/18 05:33:07;;;;;;;1.23;0.40;;;18.80;99.90;;;;;;4900422;29;20513;-91
2022/08/18 05:35:41;;;;;;;0.15;0.15;;;18.00;99.90;;;;;;4884871;29;20052;-92
2022/08/18 05:38:19;;;;;;;0.70;0.60;;;18.00;99.90;;;;;;4899731;29;20040;-90
2022/08/18 05:40:54;;;;;;;0.20;0.20;;;18.00;99.90;;;;;;4899791;29;20074;-90
2022/08/18 05:43:20;;;;;;;0.57;0.35;;;18.00;99.90;;;;;;4884749;29;20048;-91
2022/08/18 05:45:49;;;;;;;0.95;0.50;;;18.00;99.90;;;;;;4869068;29;20152;-91
2022/08/18 05:48:15;;;;;;;0.60;0.57;;;18.10;99.90;;;;;;4883921;29;20052;-90
2022/08/18 05:50:41;;;;;;;0.57;0.30;;;18.10;99.90;;;;;;4899596;29;20040;-91
2022/08/18 05:53:12;;;;;;;0.25;0.22;;;18.10;99.90;;;;;;4884498;29;20451;-91
2022/08/18 05:58:50;;;;;;;0.10;0.10;;;18.10;99.90;;;;;;4899592;29;20210;-91
2022/08/18 06:01:25;;;;;;;0.77;0.60;;;18.10;99.90;;;;;;4899786;29;20048;-91
2022/08/18 06:04:19;;;;;;;0.38;0.30;;;18.20;99.90;;;;;;4899382;29;20055;-91
2022/08/18 06:06:46;;;;;;;0.20;0.20;;;18.20;99.90;;;;;;4878906;29;20060;-91
2022/08/18 06:09:33;;;;;;;0.20;0.20;;;18.20;99.90;;;;;;4899418;29;20048;-90
2022/08/18 06:12:04;;;;;;;;;;;18.20;99.90;;;;;;4899992;29;20451;-90
2022/08/18 06:14:29;;;;;;;0.63;0.38;;;18.20;99.90;;;;;;4884208;29;19931;-90
2022/08/18 06:17:11;;;;;;;0.98;0.52;;;18.20;99.90;;;;;;4867284;29;20056;-91
2022/08/18 06:20:13;;;;;;;0.57;0.57;;;18.20;99.90;;;;;;4883699;29;20044;-91
2022/08/18 06:23:21;;;;;;;0.40;0.32;;;18.20;99.90;;;;;;4866066;29;20064;-90
2022/08/18 06:26:38;;;;;;;0.20;0.20;;;18.30;99.90;;;;;;4899036;29;20634;-91
2022/08/18 06:29:23;;;;;;;0.35;0.32;;;18.40;99.90;;;;;;4842732;29;20053;-91
2022/08/18 06:32:13;;;;;;;0.65;0.25;;;18.40;99.90;;;;;;4824114;29;20145;-92
2022/08/18 06:34:54;;;;;;;0.38;0.25;;;18.40;99.90;;;;;;4859756;29;20056;-93
2022/08/18 06:37:32;;;;;;;0.30;0.30;;;18.50;99.90;;;;;;4865918;29;20492;-92
2022/08/18 06:39:58;;;;;;;0.65;0.52;;;18.50;99.90;;;;;;4865273;29;20063;-93
2022/08/18 06:42:29;;;;;;;0.38;0.38;;;18.50;99.90;;;;;;4881450;29;20048;-92
2022/08/18 06:45:11;;;;;;;0.80;0.73;;;18.40;99.90;;;;;;4865642;29;20164;-93
2022/08/18 06:47:52;;;;;;;0.30;0.30;;;18.60;99.90;;;;;;4865692;29;20085;-92
2022/08/18 06:50:26;;;;;;;0.68;0.45;;;18.70;99.90;;;;;;4881701;29;20072;-92
2022/08/18 06:53:07;;;;;;;1.45;0.50;;;18.70;99.90;;;;;;4864264;29;20132;-92
2022/08/18 06:55:46;;;;;;;0.57;0.40;;;18.80;99.90;;;;;;4849480;29;20165;-92
2022/08/18 06:58:14;;;;;;;0.35;0.22;;;18.70;99.90;;;;;;4865115;29;20048;-92
2022/08/18 07:01:04;;;;;;;0.75;0.50;;;18.80;99.90;;;;;;4880758;29;20056;-92
2022/08/18 07:03:41;;;;;;;0.40;0.30;;;18.80;99.90;;;;;;4865831;29;20630;-92
2022/08/18 07:06:28;;;;;;;0.43;0.40;;;18.90;99.90;;;;;;4881000;29;20053;-92
2022/08/18 07:09:15;;;;;;;0.68;0.47;;;18.90;99.90;;;;;;4880574;29;20463;-92
2022/08/18 07:11:59;;;;;;;0.30;0.30;;;18.90;99.90;;;;;;4865337;29;20389;-92
2022/08/18 07:14:25;;;;;;;0.43;0.43;;;18.90;99.90;;;;;;4865351;29;20197;-92
2022/08/18 07:17:06;;;;;;;0.50;0.50;;;18.90;99.90;;;;;;4864759;29;20049;-91
2022/08/18 07:19:32;;;;;;;0.43;0.43;;;18.80;99.90;;;;;;4880667;29;20415;-91
2022/08/18 07:22:11;;;;;;;0.22;0.22;;;18.90;99.90;;;;;;4864270;29;20107;-91
2022/08/18 07:24:49;;;;;;;0.30;0.25;;;18.90;99.90;;;;;;4880764;29;20429;-92
2022/08/18 07:27:19;;;;;;;0.20;0.20;;;19.00;99.90;;;;;;4864650;29;20519;-92
2022/08/18 07:30:23;;;;;;;0.65;0.20;;;19.10;99.90;;;;;;4870252;29;20483;-91
2022/08/18 07:33:06;;;;;;;0.65;0.22;;;19.20;99.90;;;;;;4902053;29;20070;-92
2022/08/18 07:35:44;;;;;;;0.40;0.30;;;19.20;99.90;;;;;;4902129;29;20044;-92
2022/08/18 07:38:16;;;;;;;0.65;0.30;;;19.20;99.90;;;;;;4902641;29;20426;-92
2022/08/18 07:40:50;;;;;;;0.57;0.38;;;19.20;99.90;;;;;;4886665;29;20040;-92
2022/08/18 07:43:50;;;;;;;0.20;0.10;;;19.20;99.90;;;;;;4902534;29;20055;-92
2022/08/18 07:46:42;;;;;;;3.28;0.77;;;19.10;99.90;;;;;;4901817;29;20048;-92
2022/08/18 07:49:15;;;;;;;0.20;0.10;;;19.20;99.90;;;;;;4914507;29;20067;-91
2022/08/18 07:52:26;;;;;;;0.13;0.10;;;19.20;99.90;;;;;;4886337;29;20087;-92
2022/08/18 07:55:01;;;;;;;0.85;0.20;;;19.20;99.90;;;;;;4895437;29;20060;-92
2022/08/18 07:57:58;;;;;;;0.15;0.10;;;19.20;99.90;;;;;;4885591;29;20546;-92
2022/08/18 08:00:28;;;;;;;0.17;0.17;;;19.30;99.90;;;;;;4882540;29;20167;-92
2022/08/18 08:03:06;;;;;;;0.20;0.17;;;19.30;99.90;;;;;;4882734;29;20056;-92
2022/08/18 08:05:38;;;;;;;0.32;0.32;;;19.40;99.90;;;;;;4883304;29;20059;-91
2022/08/18 08:08:28;;;;;;;0.15;0.15;;;19.50;99.90;;;;;;4882726;29;20052;-92
2022/08/18 08:11:08;;;;;;;0.20;0.20;;;19.60;99.90;;;;;;4898376;29;20092;-92
2022/08/18 08:13:50;;;;;;;0.30;0.28;;;19.90;99.90;;;;;;4882796;29;20048;-92
2022/08/18 08:16:25;;;;;;;0.13;0.13;;;20.00;99.90;;;;;;4882808;29;20048;-92
2022/08/18 08:19:01;;;;;;;0.43;0.32;;;20.10;99.90;;;;;;4895738;29;20419;-92
2022/08/18 08:21:32;;;;;;;0.50;0.20;;;20.10;99.90;;;;;;4901126;29;20495;-91
2022/08/18 08:24:14;;;;;;;0.20;0.20;;;20.10;99.90;;;;;;4885622;29;20570;-91
2022/08/18 08:27:08;;;;;;;0.10;0.10;;;20.00;99.90;;;;;;4885936;29;20104;-91
2022/08/18 08:29:50;;;;;;;0.20;0.20;;;20.00;99.90;;;;;;4885564;29;20087;-92
2022/08/18 08:32:29;;;;;;;0.25;0.20;;;20.00;99.90;;;;;;4885533;29;20052;-92
2022/08/18 08:35:05;;;;;;;1.00;0.35;;;20.00;99.90;;;;;;4900911;29;20056;-91
2022/08/18 08:37:57;;;;;;;0.40;0.20;;;20.00;99.90;;;;;;4885612;29;20052;-92
2022/08/18 08:40:36;;;;;;;0.10;0.10;;;20.00;99.90;;;;;;4885383;29;20056;-92
2022/08/18 08:43:09;;;;;;;0.20;0.10;;;20.10;99.90;;;;;;4885211;29;20075;-91
2022/08/18 08:45:44;;;;;;;0.25;0.25;;;20.20;99.90;;;;;;4885652;29;20059;-92
2022/08/18 08:48:22;;;;;;;0.25;0.17;;;20.20;99.90;;;;;;4883696;29;20056;-91
2022/08/18 08:51:14;;;;;;;0.25;0.25;;;20.40;99.90;;;;;;4884462;29;20499;-91
2022/08/18 08:53:49;;;;;;;0.30;0.30;;;20.40;99.90;;;;;;4872237;29;20056;-91
2022/08/18 08:56:18;;;;;;;0.20;0.20;;;20.50;99.90;;;;;;4884947;29;20414;-92
2022/08/18 08:58:49;;;;;;;0.17;0.17;;;20.40;99.90;;;;;;4884758;29;20079;-92
2022/08/18 09:01:39;;;;;;;0.00;0.00;;;20.30;99.90;;;;;;4884029;29;20337;-92
2022/08/18 09:04:29;;;;;;;0.22;0.22;;;21.10;99.90;;;;;;4884968;29;20055;-92
2022/08/18 09:07:04;;;;;;;0.10;0.10;;;20.30;99.90;;;;;;4900810;29;20048;-92
2022/08/18 09:10:10;;;;;;;0.15;0.15;;;20.20;99.90;;;;;;4885143;29;20706;-91
2022/08/18 09:13:15;;;;;;;0.43;0.30;;;20.20;99.90;;;;;;4900183;29;20059;-91
2022/08/18 09:16:04;;;;;;;0.50;0.17;;;20.30;99.90;;;;;;4884914;29;20048;-91
2022/08/18 09:18:32;;;;;;;0.10;0.10;;;20.20;99.90;;;;;;4884927;29;20490;-92
2022/08/18 09:21:26;;;;;;;0.10;0.10;;;20.20;99.90;;;;;;4884452;29;20070;-92
2022/08/18 09:24:08;;;;;;;0.10;0.10;;;20.20;99.90;;;;;;4900319;29;20111;-91
2022/08/18 09:26:37;;;;;;;0.55;0.28;;;20.20;99.90;;;;;;4900389;29;20052;-92
2022/08/18 09:29:17;;;;;;;0.15;0.15;;;19.30;99.90;;;;;;4899809;29;20056;-91
2022/08/18 09:31:47;;;;;;;0.10;0.10;;;20.30;99.90;;;;;;4884205;29;20510;-92
2022/08/18 09:34:44;;;;;;;0.10;0.10;;;20.30;99.90;;;;;;4884324;29;20140;-92
2022/08/18 09:37:20;;;;;;;0.22;0.22;;;20.30;99.90;;;;;;4899705;29;20138;-92
2022/08/18 09:43:14;;;;;;;0.10;0.10;;;20.50;99.90;;;;;;4888737;29;20407;-92
2022/08/18 09:45:45;;;;;;;0.10;0.10;;;20.60;99.90;;;;;;4899212;29;20044;-92
2022/08/18 09:48:11;;;;;;;0.20;0.10;;;20.70;99.90;;;;;;4885499;29;20343;-92
2022/08/18 09:51:14;;;;;;;0.20;0.20;;;20.80;99.90;;;;;;4887681;29;20135;-92
2022/08/18 09:53:51;;;;;;;0.05;0.05;;;20.80;99.90;;;;;;4896334;29;20565;-93
2022/08/18 09:56:49;;;;;;;0.20;0.20;;;20.80;99.90;;;;;;4899196;29;20608;-92
2022/08/18 09:59:33;;;;;;;0.10;0.10;;;20.90;99.90;;;;;;4883313;29;20135;-92
2022/08/18 10:02:10;;;;;;;0.10;0.10;;;20.90;99.90;;;;;;4884350;29;20138;-92
2022/08/18 10:04:47;;;;;;;0.77;0.40;;;20.90;99.90;;;;;;4884376;29;20475;-92
2022/08/18 10:07:34;;;;;;;0.05;0.05;;;20.90;99.90;;;;;;4899255;29;20052;-92
2022/08/18 10:10:11;;;;;;;0.20;0.20;;;20.80;99.90;;;;;;4899492;29;20091;-92
2022/08/18 10:12:58;;;;;;;0.20;0.20;;;20.80;99.90;;;;;;4882735;29;20047;-92
2022/08/18 10:15:28;;;;;;;0.20;0.17;;;20.70;99.90;;;;;;4899196;29;20056;-92
2022/08/18 10:18:18;;;;;;;0.10;0.10;;;20.70;99.90;;;;;;4883756;29;20055;-92
2022/08/18 10:21:02;;;;;;;1.85;0.10;;;20.70;99.90;;;;;;4884339;29;20052;-92
2022/08/18 10:23:46;;;;;;;0.10;0.10;;;20.70;99.90;;;;;;4884427;29;20051;-92
2022/08/18 10:26:37;;;;;;;0.10;0.10;;;20.70;99.90;;;;;;4883751;29;20044;-93
2022/08/18 10:29:20;;;;;;;0.15;0.15;;;20.70;99.90;;;;;;4899350;29;20135;-93
2022/08/18 10:31:57;;;;;;;0.08;0.08;;;20.70;99.90;;;;;;4878505;29;20147;-91
2022/08/18 10:34:42;;;;;;;0.10;0.10;;;20.70;99.90;;;;;;4880439;29;20131;-92
2022/08/18 10:37:25;;;;;;;0.10;0.10;;;20.80;99.90;;;;;;4895679;29;20124;-92
2022/08/18 10:39:54;;;;;;;0.17;0.17;;;20.80;99.90;;;;;;4912312;29;20128;-92
2022/08/18 10:42:31;;;;;;;0.20;0.20;;;20.80;99.90;;;;;;4879317;29;20053;-92
2022/08/18 10:45:11;;;;;;;0.10;0.10;;;20.80;99.90;;;;;;4896518;29;20403;-93
2022/08/18 10:47:37;;;;;;;0.05;0.05;;;20.90;99.90;;;;;;4896092;29;20048;-92
2022/08/18 10:50:08;;;;;;;0.20;0.20;;;20.90;99.90;;;;;;4896217;29;20559;-91
2022/08/18 10:52:55;;;;;;;0.10;0.10;;;20.90;99.90;;;;;;4880434;29;20088;-93
2022/08/18 10:55:41;;;;;;;0.20;0.15;;;21.00;99.90;;;;;;4895809;29;20120;-93
2022/08/18 10:58:36;;;;;;;1.08;0.28;;;21.00;99.90;;;;;;4895714;29;20510;-92
2022/08/18 11:01:05;;;;;;;0.10;0.10;;;20.90;99.90;;;;;;4880551;29;20498;-93
2022/08/18 11:03:53;;;;;;;0.20;0.20;;;20.90;99.90;;;;;;4880808;29;20053;-93
2022/08/18 11:06:19;;;;;;;;;;;20.90;99.90;;;;;;4881711;29;20052;-93
2022/08/18 11:08:48;;;;;;;0.00;0.00;;;20.90;99.90;;;;;;4896617;29;19935;-92
2022/08/18 11:11:21;;;;;;;0.10;0.10;;;21.00;99.90;;;;;;4892923;29;20045;-93
2022/08/18 11:14:00;;;;;;;0.17;0.13;;;20.90;99.90;;;;;;4893774;29;20053;-92
2022/08/18 11:16:28;;;;;;;0.10;0.10;;;21.00;99.90;;;;;;4893271;29;20052;-92
2022/08/18 11:19:11;;;;;;;0.20;0.20;;;21.00;99.90;;;;;;4905656;29;20053;-93
2022/08/18 11:21:42;;;;;;;0.30;0.13;;;21.00;99.90;;;;;;4882497;29;20135;-92
2022/08/18 11:24:12;;;;;;;0.13;0.13;;;21.10;99.90;;;;;;4899386;29;20088;-92
2022/08/18 11:26:46;;;;;;;0.15;0.15;;;21.10;99.90;;;;;;4885232;29;20075;-93
2022/08/18 11:29:27;;;;;;;0.40;0.22;;;20.80;99.90;;;;;;4899941;29;20059;-92
2022/08/18 11:32:02;;;;;;;0.10;0.10;;;21.10;99.90;;;;;;4902250;29;20471;-92
2022/08/18 11:34:42;;;;;;;0.05;0.05;;;21.10;99.90;;;;;;4887364;29;20058;-92
2022/08/18 11:37:38;;;;;;;0.10;0.10;;;21.00;99.90;;;;;;4886971;29;20506;-92
2022/08/18 11:40:34;;;;;;;0.47;0.30;;;21.00;99.90;;;;;;4902748;29;20052;-93
2022/08/18 11:43:11;;;;;;;0.20;0.20;;;20.90;99.90;;;;;;4901129;29;20087;-93
2022/08/18 11:45:43;;;;;;;0.22;0.20;;;20.90;99.90;;;;;;4886735;29;20048;-93
2022/08/18 11:48:27;;;;;;;0.30;0.30;;;20.80;99.90;;;;;;4902127;29;20086;-92
2022/08/18 11:51:00;;;;;;;0.52;0.10;;;20.80;99.90;;;;;;4902258;29;20056;-92
2022/08/18 11:53:32;;;;;;;0.30;0.20;;;20.80;99.90;;;;;;4901979;29;20087;-92
2022/08/18 11:56:13;;;;;;;0.30;0.30;;;20.90;99.90;;;;;;4886753;29;20063;-92
2022/08/18 11:59:01;;;;;;;0.10;0.10;;;21.00;99.90;;;;;;4886284;29;20048;-93
2022/08/18 12:01:31;;;;;;;0.30;0.30;;;21.00;99.90;;;;;;4886487;29;20062;-93
2022/08/18 12:04:12;;;;;;;0.10;0.10;;;21.10;99.90;;;;;;4886608;29;20148;-93
2022/08/18 12:06:58;;;;;;;0.32;0.32;;;21.40;99.90;;;;;;4885962;29;20056;-92
2022/08/18 12:09:47;;;;;;;0.20;0.20;;;21.50;99.90;;;;;;4886026;29;20044;-93
2022/08/18 12:12:23;;;;;;;0.20;0.20;;;21.80;99.90;;;;;;4900104;29;20056;-93
2022/08/18 12:14:51;;;;;;;0.15;0.15;;;22.60;99.90;;;;;;4885102;29;20087;-93
2022/08/18 12:17:17;;;;;;;0.00;0.00;;;21.90;99.90;;;;;;4886043;29;20112;-94
2022/08/18 12:19:45;;;;;;;0.10;0.10;;;21.90;99.90;;;;;;4901411;29;20051;-93
2022/08/18 12:22:20;;;;;;;0.20;0.20;;;21.90;99.90;;;;;;4886273;29;20048;-93
2022/08/18 12:24:47;;;;;;;0.28;0.28;;;21.90;99.90;;;;;;4901815;29;20056;-92
2022/08/18 12:27:15;;;;;;;0.30;0.30;;;21.90;99.90;;;;;;4886173;29;20410;-93
2022/08/18 12:29:41;;;;;;;0.20;0.17;;;21.90;99.90;;;;;;4885751;29;20056;-93
2022/08/18 12:32:08;;;;;;;0.50;0.30;;;21.90;99.90;;;;;;4900514;29;20488;-93
2022/08/18 12:34:33;;;;;;;0.20;0.10;;;21.90;99.90;;;;;;4869907;29;20460;-92
2022/08/18 12:37:00;;;;;;;0.13;0.13;;;21.90;99.90;;;;;;4870564;29;20087;-93
2022/08/18 12:39:27;;;;;;;0.20;0.20;;;21.80;99.90;;;;;;4885055;29;20404;-93
2022/08/18 12:41:53;;;;;;;0.38;0.38;;;21.80;99.90;;;;;;4870421;29;20563;-93
2022/08/18 12:44:20;;;;;;;0.20;0.20;;;21.70;99.90;;;;;;4885624;29;20060;-94
2022/08/18 12:46:46;;;;;;;;;;;21.70;99.90;;;;;;4885545;29;20048;-93
2022/08/18 12:49:23;;;;;;;0.28;0.20;;;21.70;99.90;;;;;;4901160;29;20022;-94
2022/08/18 12:51:50;;;;;;;0.75;0.75;;;21.70;99.90;;;;;;4901211;29;20044;-94
2022/08/18 12:54:16;;;;;;;0.80;0.60;;;21.80;99.90;;;;;;4885423;29;20047;-92
2022/08/18 12:56:42;;;;;;;0.20;0.20;;;21.80;99.90;;;;;;4884898;29;20044;-93
2022/08/18 12:59:09;;;;;;;0.25;0.25;;;21.90;99.90;;;;;;4869535;29;20052;-94
2022/08/18 13:01:37;;;;;;;0.32;0.32;;;21.90;99.90;;;;;;4900657;29;20376;-93
2022/08/18 13:04:06;;;;;;;0.20;0.20;;;22.00;99.90;;;;;;4884267;29;20051;-93
2022/08/18 13:06:35;;;;;;;0.20;0.20;;;22.20;99.90;;;;;;4884849;29;20059;-93
2022/08/18 13:09:00;;;;;;;0.20;0.20;;;21.60;99.90;;;;;;4885163;29;20052;-93
2022/08/18 13:11:26;;;;;;;0.30;0.20;;;22.40;99.90;;;;;;4900420;29;20139;-93
2022/08/18 13:13:53;;;;;;;0.22;0.22;;;22.40;99.90;;;;;;4885099;29;20047;-93
2022/08/18 13:16:19;;;;;;;0.32;0.10;;;22.70;99.90;;;;;;4885138;29;20059;-93
2022/08/18 13:18:45;;;;;;;0.10;0.10;;;22.90;99.90;;;;;;4884471;29;20114;-93
2022/08/18 13:21:13;;;;;;;0.10;0.10;;;23.00;99.90;;;;;;4900825;29;20384;-94
2022/08/18 13:23:39;;;;;;;0.17;0.17;;;22.90;99.90;;;;;;4884589;29;20131;-93
2022/08/18 13:26:06;;;;;;;;;;;22.90;99.90;;;;;;4900918;29;20063;-93
2022/08/18 13:28:34;;;;;;;0.47;0.47;;;22.90;99.90;;;;;;4884657;29;19928;-93
2022/08/18 13:31:01;;;;;;;0.10;0.10;;;24.00;99.90;;;;;;4900067;29;20056;-94
2022/08/18 13:33:27;;;;;;;0.40;0.30;;;23.20;99.90;;;;;;4883318;29;20051;-94